createdAt,value
2019-03-26T00:00:33.842Z,99240.26
2019-03-26T00:03:02.416Z,99250.13
2019-03-26T00:05:30.898Z,99251.95
2019-03-26T00:07:59.483Z,99247.59
2019-03-26T00:10:27.960Z,99251.18
2019-03-26T00:12:56.545Z,99246.81
2019-03-26T00:15:25.231Z,99250.44
2019-03-26T00:17:53.820Z,99259.38
2019-03-26T00:20:22.398Z,99250.61
2019-03-26T00:22:50.880Z,99253.36
2019-03-26T00:25:19.462Z,99247.20
2019-03-26T00:27:48.050Z,99250.79
2019-03-26T00:30:16.737Z,99251.75
2019-03-26T00:32:45.317Z,99242.05
2019-03-26T00:35:13.900Z,99240.34
2019-03-26T00:37:42.480Z,99227.97
2019-03-26T00:40:11.069Z,99225.39
2019-03-26T00:42:39.648Z,99235.20
2019-03-26T00:45:08.232Z,99235.30
2019-03-26T00:47:36.818Z,99226.44
2019-03-26T00:50:06.424Z,99230.92
2019-03-26T00:52:34.959Z,99224.83
2019-03-26T00:55:04.204Z,99224.83
2019-03-26T00:57:32.714Z,99234.63
2019-03-26T01:00:01.370Z,99241.75
2019-03-26T01:02:29.873Z,99242.70
2019-03-26T01:04:58.539Z,99237.47
2019-03-26T01:07:27.138Z,99241.92
2019-03-26T01:09:55.704Z,99241.09
2019-03-26T01:12:24.291Z,99248.30
2019-03-26T01:14:52.871Z,99252.87
2019-03-26T01:17:21.348Z,99259.90
2019-03-26T01:19:52.701Z,99251.12
2019-03-26T01:22:21.178Z,99248.47
2019-03-26T01:24:49.764Z,99245.06
2019-03-26T01:27:18.243Z,99253.05
2019-03-26T01:29:46.722Z,99253.05
2019-03-26T01:32:15.206Z,99263.74
2019-03-26T01:34:46.279Z,99269.06
2019-03-26T01:37:14.013Z,99278.84
2019-03-26T01:39:42.593Z,99280.75
2019-03-26T01:42:11.184Z,99287.78
2019-03-26T01:44:39.764Z,99279.05
2019-03-26T01:47:08.241Z,99291.39
2019-03-26T01:49:36.828Z,99287.87
2019-03-26T01:52:05.308Z,99288.83
2019-03-26T01:54:33.783Z,99282.72
2019-03-26T01:57:02.270Z,99283.59
2019-03-26T01:59:30.856Z,99282.72
2019-03-26T02:01:59.338Z,99280.05
2019-03-26T02:04:27.918Z,99281.01
2019-03-26T02:06:56.503Z,99276.73
2019-03-26T02:09:25.086Z,99287.28
2019-03-26T02:11:53.673Z,99286.50
2019-03-26T02:14:22.249Z,99290.98
2019-03-26T02:16:50.729Z,99293.65
2019-03-26T02:19:19.317Z,99298.97
2019-03-26T02:21:47.900Z,99306.95
2019-03-26T02:24:16.376Z,99313.23
2019-03-26T02:26:44.856Z,99308.75
2019-03-26T02:29:13.447Z,99313.23
2019-03-26T02:31:42.031Z,99320.34
2019-03-26T02:34:10.610Z,99328.33
2019-03-26T02:36:39.189Z,99336.39
2019-03-26T02:39:07.987Z,99343.50
2019-03-26T02:41:38.032Z,99347.03
2019-03-26T02:44:06.786Z,99347.91
2019-03-26T02:46:35.277Z,99354.06
2019-03-26T02:49:03.751Z,99357.68
2019-03-26T02:51:32.333Z,99357.68
2019-03-26T02:54:00.919Z,99365.66
2019-03-26T02:56:29.399Z,99370.98
2019-03-26T02:58:57.981Z,99378.97
2019-03-26T03:01:26.564Z,99371.94
2019-03-26T03:03:55.039Z,99379.92
2019-03-26T03:06:23.629Z,99384.29
2019-03-26T03:08:52.107Z,99390.56
2019-03-26T03:11:20.692Z,99384.29
2019-03-26T03:13:49.381Z,99384.29
2019-03-26T03:16:17.961Z,99388.73
2019-03-26T03:18:46.541Z,99394.06
2019-03-26T03:21:15.130Z,99399.38
2019-03-26T03:23:43.718Z,99403.86
2019-03-26T03:26:12.294Z,99405.58
2019-03-26T03:28:40.879Z,99402.91
2019-03-26T03:31:09.459Z,99407.28
2019-03-26T03:33:37.941Z,99407.28
2019-03-26T03:36:06.520Z,99411.77
2019-03-26T03:38:35.118Z,99414.42
2019-03-26T03:41:04.097Z,99416.22
2019-03-26T03:43:32.684Z,99411.77
2019-03-26T03:46:01.274Z,99427.73
2019-03-26T03:48:29.745Z,99430.47
2019-03-26T03:50:58.330Z,99434.84
2019-03-26T03:53:26.812Z,99437.50
2019-03-26T03:55:56.119Z,99442.83
2019-03-26T03:58:24.694Z,99433.97
2019-03-26T04:00:53.182Z,99441.95
2019-03-26T04:03:21.779Z,99448.15
2019-03-26T04:05:50.236Z,99462.41
2019-03-26T04:08:18.830Z,99462.41
2019-03-26T04:10:47.300Z,99467.72
2019-03-26T04:13:15.786Z,99473.05
2019-03-26T04:15:44.265Z,99474.75
2019-03-26T04:18:12.755Z,99477.42
2019-03-26T04:20:41.263Z,99473.88
2019-03-26T04:23:09.920Z,99485.41
2019-03-26T04:25:38.443Z,99492.44
2019-03-26T04:28:08.615Z,99492.44
2019-03-26T04:30:37.814Z,99489.77
2019-03-26T04:33:06.395Z,99499.50
2019-03-26T04:35:34.873Z,99498.63
2019-03-26T04:38:03.468Z,99503.08
2019-03-26T04:40:32.045Z,99514.59
2019-03-26T04:43:00.623Z,99510.22
2019-03-26T04:45:29.081Z,99502.23
2019-03-26T04:47:57.687Z,99508.40
2019-03-26T04:50:26.168Z,99511.93
2019-03-26T04:52:54.753Z,99519.99
2019-03-26T04:55:23.233Z,99523.52
2019-03-26T04:57:51.820Z,99524.44
2019-03-26T05:00:20.300Z,99534.25
2019-03-26T05:02:48.879Z,99535.95
2019-03-26T05:05:17.361Z,99536.91
2019-03-26T05:07:45.844Z,99539.56
2019-03-26T05:10:14.325Z,99543.94
2019-03-26T05:12:42.805Z,99538.62
2019-03-26T05:15:13.949Z,99545.73
2019-03-26T05:17:42.535Z,99545.73
2019-03-26T05:20:11.011Z,99539.56
2019-03-26T05:22:39.490Z,99537.75
2019-03-26T05:25:08.205Z,99550.21
2019-03-26T05:27:45.174Z,99543.06
2019-03-26T05:30:07.520Z,99540.59
2019-03-26T05:32:36.083Z,99537.86
2019-03-26T05:35:05.282Z,99543.18
2019-03-26T05:37:33.867Z,99544.97
2019-03-26T05:40:02.447Z,99551.16
2019-03-26T05:42:31.030Z,99543.18
2019-03-26T05:44:59.613Z,99548.50
2019-03-26T05:47:28.197Z,99535.20
2019-03-26T05:49:56.780Z,99531.59
2019-03-26T05:52:25.358Z,99543.18
2019-03-26T05:54:53.844Z,99536.12
2019-03-26T05:57:22.425Z,99540.59
2019-03-26T05:59:50.905Z,99534.33
2019-03-26T06:02:19.495Z,99538.78
2019-03-26T06:04:48.075Z,99540.52
2019-03-26T06:07:16.656Z,99550.30
2019-03-26T06:09:45.122Z,99541.36
2019-03-26T06:12:13.724Z,99552.88
2019-03-26T06:14:42.203Z,99543.06
2019-03-26T06:17:10.786Z,99559.91
2019-03-26T06:19:39.368Z,99554.59
2019-03-26T06:22:07.847Z,99555.45
2019-03-26T06:24:36.326Z,99552.88
2019-03-26T06:27:04.910Z,99556.30
2019-03-26T06:29:33.391Z,99550.97
2019-03-26T06:32:01.980Z,99556.30
2019-03-26T06:34:30.428Z,99547.39
2019-03-26T06:36:58.936Z,99559.75
2019-03-26T06:39:27.418Z,99549.10
2019-03-26T06:41:55.903Z,99561.46
2019-03-26T06:44:24.389Z,99564.91
2019-03-26T06:46:52.970Z,99555.90
2019-03-26T06:49:21.551Z,99557.53
2019-03-26T06:51:50.032Z,99557.38
2019-03-26T06:54:18.501Z,99560.83
2019-03-26T06:56:46.992Z,99561.62
2019-03-26T06:59:15.469Z,99567.70
2019-03-26T07:01:43.955Z,99564.88
2019-03-26T07:04:12.537Z,99564.72
2019-03-26T07:06:41.014Z,99567.19
2019-03-26T07:09:09.605Z,99568.93
2019-03-26T07:11:38.132Z,99575.09
2019-03-26T07:14:06.665Z,99572.27
2019-03-26T07:16:35.115Z,99570.48
2019-03-26T07:19:03.631Z,99574.77
2019-03-26T07:21:32.107Z,99570.28
2019-03-26T07:24:00.700Z,99572.03
2019-03-26T07:26:29.147Z,99581.64
2019-03-26T07:28:57.756Z,99585.14
2019-03-26T07:31:26.339Z,99584.11
2019-03-26T07:33:54.923Z,99590.15
2019-03-26T07:36:23.403Z,99584.73
2019-03-26T07:38:51.991Z,99593.41
2019-03-26T07:41:20.572Z,99592.20
2019-03-26T07:43:49.087Z,99581.30
2019-03-26T07:46:17.636Z,99587.31
2019-03-26T07:48:47.341Z,99580.86
2019-03-26T07:51:15.936Z,99576.99
2019-03-26T07:53:44.512Z,99585.58
2019-03-26T07:56:14.224Z,99574.92
2019-03-26T07:58:42.805Z,99579.41
2019-03-26T08:01:11.281Z,99583.87
2019-03-26T08:03:39.869Z,99586.61
2019-03-26T08:06:08.452Z,99588.41
2019-03-26T08:08:37.039Z,99594.69
2019-03-26T08:11:05.511Z,99591.19
2019-03-26T08:13:34.109Z,99592.98
2019-03-26T08:16:02.692Z,99600.02
2019-03-26T08:18:31.267Z,99600.02
2019-03-26T08:20:59.846Z,99601.73
2019-03-26T08:23:28.328Z,99599.77
2019-03-26T08:25:56.813Z,99609.47
2019-03-26T08:28:25.294Z,99603.81
2019-03-26T08:30:53.877Z,99591.91
2019-03-26T08:33:23.474Z,99595.89
2019-03-26T08:35:52.168Z,99587.64
2019-03-26T08:38:20.755Z,99597.44
2019-03-26T08:40:49.231Z,99602.68
2019-03-26T08:43:17.814Z,99609.64
2019-03-26T08:45:46.295Z,99603.44
2019-03-26T08:48:14.886Z,99597.09
2019-03-26T08:50:43.358Z,99603.96
2019-03-26T08:53:11.838Z,99600.26
2019-03-26T08:55:40.327Z,99599.30
2019-03-26T08:58:08.805Z,99602.92
2019-03-26T09:00:37.289Z,99596.63
2019-03-26T09:03:05.871Z,99594.92
2019-03-26T09:05:34.675Z,99596.63
2019-03-26T09:08:03.554Z,99594.84
2019-03-26T09:10:32.033Z,99582.34
2019-03-26T09:13:00.616Z,99578.75
2019-03-26T09:15:29.094Z,99578.29
2019-03-26T09:17:57.569Z,99584.49
2019-03-26T09:20:26.051Z,99585.33
2019-03-26T09:22:54.533Z,99575.53
2019-03-26T09:25:23.013Z,99580.48
2019-03-26T09:27:52.602Z,99573.27
2019-03-26T09:30:21.157Z,99574.11
2019-03-26T09:32:49.688Z,99577.73
2019-03-26T09:35:18.169Z,99572.48
2019-03-26T09:37:46.749Z,99575.36
2019-03-26T09:40:15.203Z,99569.24
2019-03-26T09:42:43.817Z,99572.87
2019-03-26T09:45:12.397Z,99564.31
2019-03-26T09:47:40.879Z,99560.99
2019-03-26T09:50:10.591Z,99551.19
2019-03-26T09:52:39.076Z,99559.16
2019-03-26T09:55:08.164Z,99559.81
2019-03-26T09:57:37.353Z,99555.34
2019-03-26T10:00:08.617Z,99563.45
2019-03-26T10:02:37.120Z,99558.29
2019-03-26T10:05:06.902Z,99568.01
2019-03-26T10:07:35.384Z,99571.55
2019-03-26T10:10:05.718Z,99563.05
2019-03-26T10:12:34.292Z,99564.86
2019-03-26T10:15:02.883Z,99568.37
2019-03-26T10:17:31.349Z,99559.20
2019-03-26T10:19:59.940Z,99555.38
2019-03-26T10:22:28.420Z,99554.06
2019-03-26T10:24:57.005Z,99545.42
2019-03-26T10:27:25.588Z,99560.00
2019-03-26T10:29:54.175Z,99561.52
2019-03-26T10:32:22.758Z,99552.52
2019-03-26T10:34:51.336Z,99543.53
2019-03-26T10:37:19.874Z,99537.13
2019-03-26T10:39:48.416Z,99533.61
2019-03-26T10:42:16.877Z,99527.72
2019-03-26T10:44:45.464Z,99535.17
2019-03-26T10:47:13.942Z,99538.38
2019-03-26T10:49:42.527Z,99533.42
2019-03-26T10:52:11.007Z,99536.61
2019-03-26T10:54:39.432Z,99534.13
2019-03-26T10:57:07.819Z,99530.92
2019-03-26T10:59:36.216Z,99529.41
2019-03-26T11:02:04.606Z,99522.26
2019-03-26T11:04:32.997Z,99531.02
2019-03-26T11:07:01.383Z,99532.97
2019-03-26T11:09:29.768Z,99519.61
2019-03-26T11:11:58.207Z,99514.44
2019-03-26T11:14:26.594Z,99518.39
2019-03-26T11:16:55.001Z,99516.23
2019-03-26T11:19:23.391Z,99522.43
2019-03-26T11:21:51.901Z,99518.81
2019-03-26T11:24:20.289Z,99516.37
2019-03-26T11:26:48.688Z,99514.55
2019-03-26T11:29:17.072Z,99517.80
2019-03-26T11:31:45.526Z,99526.05
2019-03-26T11:34:13.922Z,99515.13
2019-03-26T11:36:42.323Z,99512.39
2019-03-26T11:39:10.716Z,99504.16
2019-03-26T11:41:39.104Z,99506.42
2019-03-26T11:44:07.511Z,99511.51
2019-03-26T11:46:35.884Z,99515.97
2019-03-26T11:49:04.344Z,99509.55
2019-03-26T11:51:32.743Z,99503.86
2019-03-26T11:54:01.133Z,99499.48
2019-03-26T11:56:29.532Z,99498.52
2019-03-26T11:58:57.901Z,99496.81
2019-03-26T12:01:26.366Z,99493.57
2019-03-26T12:03:54.805Z,99493.23
2019-03-26T12:06:23.149Z,99507.76
2019-03-26T12:08:51.533Z,99497.30
2019-03-26T12:11:19.938Z,99492.48
2019-03-26T12:13:48.316Z,99491.23
2019-03-26T12:16:16.724Z,99477.28
2019-03-26T12:18:45.114Z,99476.41
2019-03-26T12:21:13.512Z,99484.11
2019-03-26T12:23:41.900Z,99476.53
2019-03-26T12:26:10.302Z,99473.92
2019-03-26T12:28:38.684Z,99466.48
2019-03-26T12:31:07.158Z,99468.53
2019-03-26T12:33:35.557Z,99459.33
2019-03-26T12:36:04.007Z,99462.91
2019-03-26T12:38:32.371Z,99479.21
2019-03-26T12:41:00.769Z,99473.13
2019-03-26T12:43:29.158Z,99476.38
2019-03-26T12:45:57.559Z,99470.47
2019-03-26T12:48:25.957Z,99463.54
2019-03-26T12:50:54.376Z,99462.72
2019-03-26T12:53:22.772Z,99458.23
2019-03-26T12:55:51.179Z,99448.92
2019-03-26T12:58:30.943Z,99438.61
2019-03-26T13:00:49.719Z,99435.16
2019-03-26T13:03:18.098Z,99433.17
2019-03-26T13:05:46.492Z,99423.55
2019-03-26T13:08:14.884Z,99415.52
2019-03-26T13:10:53.520Z,99409.36
2019-03-26T13:13:14.163Z,99415.03
2019-03-26T13:15:42.543Z,99400.27
2019-03-26T13:18:11.296Z,99393.38
2019-03-26T13:20:39.801Z,99391.70
2019-03-26T13:23:08.185Z,99412.17
2019-03-26T13:25:36.569Z,99403.73
2019-03-26T13:28:04.955Z,99408.77
2019-03-26T13:30:33.354Z,99393.91
2019-03-26T13:33:01.846Z,99384.36
2019-03-26T13:35:30.327Z,99383.52
2019-03-26T13:37:58.890Z,99379.63
2019-03-26T13:40:27.929Z,99389.39
2019-03-26T13:42:56.453Z,99388.06
2019-03-26T13:45:24.836Z,99379.72
2019-03-26T13:47:53.249Z,99370.63
2019-03-26T13:50:21.637Z,99368.22
2019-03-26T13:52:50.070Z,99365.03
2019-03-26T13:55:18.472Z,99352.58
2019-03-26T13:57:46.892Z,99355.20
2019-03-26T14:00:15.303Z,99352.45
2019-03-26T14:02:43.818Z,99347.23
2019-03-26T14:05:24.385Z,99353.78
2019-03-26T14:07:52.967Z,99336.09
2019-03-26T14:10:21.353Z,99350.82
2019-03-26T14:12:49.860Z,99338.62
2019-03-26T14:15:18.248Z,99345.82
2019-03-26T14:17:46.658Z,99343.00
2019-03-26T14:20:15.748Z,99337.66
2019-03-26T14:22:44.140Z,99341.87
2019-03-26T14:25:12.531Z,99347.02
2019-03-26T14:27:40.998Z,99338.91
2019-03-26T14:30:09.653Z,99328.72
2019-03-26T14:32:38.085Z,99319.42
2019-03-26T14:35:07.912Z,99327.97
2019-03-26T14:37:50.219Z,99328.14
2019-03-26T14:40:06.490Z,99322.80
2019-03-26T14:42:34.888Z,99319.30
2019-03-26T14:45:04.239Z,99315.50
2019-03-26T14:47:32.630Z,99319.73
2019-03-26T14:50:01.018Z,99311.41
2019-03-26T14:52:29.402Z,99312.59
2019-03-26T14:54:57.852Z,99307.56
2019-03-26T14:57:26.244Z,99302.38
2019-03-26T14:59:54.641Z,99307.91
2019-03-26T15:02:23.035Z,99300.80
2019-03-26T15:04:51.431Z,99295.38
2019-03-26T15:07:19.888Z,99281.83
2019-03-26T15:09:48.282Z,99279.44
2019-03-26T15:12:16.723Z,99292.16
2019-03-26T15:14:45.119Z,99287.45
2019-03-26T15:17:13.543Z,99292.40
2019-03-26T15:19:41.929Z,99291.13
2019-03-26T15:22:10.358Z,99280.12
2019-03-26T15:24:38.794Z,99284.95
2019-03-26T15:27:07.168Z,99265.94
2019-03-26T15:29:35.563Z,99275.34
2019-03-26T15:32:04.184Z,99283.05
2019-03-26T15:34:36.367Z,99283.71
2019-03-26T15:37:02.795Z,99279.02
2019-03-26T15:39:31.178Z,99278.66
2019-03-26T15:41:59.568Z,99275.64
2019-03-26T15:44:27.950Z,99285.99
2019-03-26T15:46:56.342Z,99286.43
2019-03-26T15:49:24.735Z,99279.79
2019-03-26T15:51:53.115Z,99283.83
2019-03-26T15:54:21.501Z,99302.95
2019-03-26T15:56:51.214Z,99299.83
2019-03-26T15:59:19.606Z,99325.98
2019-03-26T16:01:47.997Z,99313.90
2019-03-26T16:04:16.384Z,99326.77
2019-03-26T16:06:44.783Z,99346.60
2019-03-26T16:09:13.163Z,99334.52
2019-03-26T16:11:41.554Z,99341.84
2019-03-26T16:14:09.942Z,99337.66
2019-03-26T16:16:38.320Z,99339.88
2019-03-26T16:19:06.717Z,99341.89
2019-03-26T16:21:35.234Z,99366.95
2019-03-26T16:24:03.826Z,99358.37
2019-03-26T16:26:32.207Z,99354.95
2019-03-26T16:29:00.609Z,99357.81
2019-03-26T16:31:28.991Z,99356.30
2019-03-26T16:33:57.540Z,99352.11
2019-03-26T16:36:25.973Z,99358.59
2019-03-26T16:38:54.402Z,99354.30
2019-03-26T16:41:23.126Z,99350.03
2019-03-26T16:43:51.607Z,99371.54
2019-03-26T16:46:19.992Z,99365.47
2019-03-26T16:48:48.411Z,99364.69
2019-03-26T16:51:16.805Z,99376.50
2019-03-26T16:53:45.231Z,99377.45
2019-03-26T16:56:13.683Z,99372.30
2019-03-26T16:58:42.100Z,99368.77
2019-03-26T17:01:10.588Z,99376.11
2019-03-26T17:03:39.049Z,99374.41
2019-03-26T17:06:07.435Z,99373.72
2019-03-26T17:08:35.994Z,99372.01
2019-03-26T17:11:04.398Z,99368.59
2019-03-26T17:13:32.823Z,99360.69
2019-03-26T17:16:01.214Z,99375.87
2019-03-26T17:18:29.635Z,99377.79
2019-03-26T17:20:58.037Z,99369.02
2019-03-26T17:23:26.740Z,99370.94
2019-03-26T17:25:55.130Z,99386.14
2019-03-26T17:28:23.557Z,99375.66
2019-03-26T17:30:52.051Z,99380.98
2019-03-26T17:33:20.488Z,99385.57
2019-03-26T17:35:48.874Z,99381.20
2019-03-26T17:38:17.266Z,99382.13
2019-03-26T17:40:45.652Z,99355.61
2019-03-26T17:43:14.039Z,99376.05
2019-03-26T17:45:42.426Z,99396.58
2019-03-26T17:48:10.818Z,99397.45
2019-03-26T17:50:39.287Z,99399.37
2019-03-26T17:53:07.930Z,99397.63
2019-03-26T17:55:36.397Z,99393.25
2019-03-26T17:58:04.833Z,99401.33
2019-03-26T18:00:39.150Z,99406.66
2019-03-26T18:03:07.574Z,99419.14
2019-03-26T18:05:35.974Z,99418.27
2019-03-26T18:08:04.367Z,99412.16
2019-03-26T18:10:32.782Z,99416.66
2019-03-26T18:13:01.175Z,99412.28
2019-03-26T18:15:29.651Z,99407.05
2019-03-26T18:17:58.050Z,99410.62
2019-03-26T18:20:32.447Z,99410.62
2019-03-26T18:22:56.574Z,99403.59
2019-03-26T18:25:24.973Z,99408.92
2019-03-26T18:27:53.367Z,99400.09
2019-03-26T18:30:21.773Z,99407.22
2019-03-26T18:32:50.209Z,99409.88
2019-03-26T18:35:18.620Z,99413.50
2019-03-26T18:37:47.013Z,99410.84
2019-03-26T18:40:15.416Z,99402.84
2019-03-26T18:42:44.664Z,99400.18
2019-03-26T18:45:13.219Z,99403.77
2019-03-26T18:47:41.615Z,99399.31
2019-03-26T18:50:10.010Z,99400.27
2019-03-26T18:52:38.227Z,99396.73
2019-03-26T18:55:06.641Z,99385.24
2019-03-26T18:57:35.126Z,99396.73
2019-03-26T19:00:07.749Z,99397.69
2019-03-26T19:02:36.163Z,99395.03
2019-03-26T19:05:06.798Z,99409.30
2019-03-26T19:07:35.303Z,99411.97
2019-03-26T19:10:06.011Z,99412.89
2019-03-26T19:12:34.402Z,99404.06
2019-03-26T19:15:02.937Z,99420.13
2019-03-26T19:17:31.320Z,99429.08
2019-03-26T19:19:59.747Z,99429.08
2019-03-26T19:22:28.125Z,99425.62
2019-03-26T19:24:56.558Z,99482.42
2019-03-26T19:27:24.951Z,99517.97
2019-03-26T19:29:53.398Z,99495.82
2019-03-26T19:32:21.865Z,99518.08
2019-03-26T19:34:50.293Z,99525.12
2019-03-26T19:37:18.682Z,99534.06
2019-03-26T19:39:47.318Z,99535.85
2019-03-26T19:42:15.707Z,99546.58
2019-03-26T19:44:44.147Z,99559.81
2019-03-26T19:47:12.531Z,99548.30
2019-03-26T19:49:41.049Z,99559.90
2019-03-26T19:52:09.442Z,99562.56
2019-03-26T19:54:37.901Z,99562.56
2019-03-26T19:57:06.289Z,99566.18
2019-03-26T19:59:34.735Z,99565.31
2019-03-26T20:02:03.125Z,99565.39
2019-03-26T20:04:31.534Z,99569.95
2019-03-26T20:07:00.111Z,99571.75
2019-03-26T20:09:28.623Z,99576.32
2019-03-26T20:11:57.014Z,99579.06
2019-03-26T20:14:25.432Z,99582.67
2019-03-26T20:16:53.894Z,99592.45
2019-03-26T20:19:22.316Z,99603.11
2019-03-26T20:21:50.710Z,99599.58
2019-03-26T20:24:19.129Z,99604.98
2019-03-26T20:26:47.525Z,99614.79
2019-03-26T20:29:16.023Z,99629.05
2019-03-26T20:31:44.426Z,99629.05
2019-03-26T20:34:12.850Z,99622.94
2019-03-26T20:36:41.337Z,99629.20
2019-03-26T20:39:11.369Z,99633.58
2019-03-26T20:41:39.893Z,99637.20
2019-03-26T20:44:08.252Z,99631.88
2019-03-26T20:46:36.648Z,99627.50
2019-03-26T20:49:05.033Z,99627.50
2019-03-26T20:51:33.444Z,99625.75
2019-03-26T20:54:01.926Z,99641.73
2019-03-26T20:56:30.323Z,99639.14
2019-03-26T20:58:58.711Z,99641.73
2019-03-26T21:01:27.104Z,99638.30
2019-03-26T21:03:55.499Z,99636.48
2019-03-26T21:06:23.948Z,99650.74
2019-03-26T21:08:52.336Z,99655.23
2019-03-26T21:11:20.734Z,99658.73
2019-03-26T21:13:50.996Z,99646.21
2019-03-26T21:16:19.259Z,99650.66
2019-03-26T21:18:47.666Z,99659.60
2019-03-26T21:21:16.045Z,99670.33
2019-03-26T21:23:44.443Z,99679.34
2019-03-26T21:26:12.915Z,99687.33
2019-03-26T21:28:41.387Z,99693.75
2019-03-26T21:31:09.795Z,99692.96
2019-03-26T21:33:38.188Z,99699.35
2019-03-26T21:36:06.570Z,99702.97
2019-03-26T21:38:34.963Z,99701.41
2019-03-26T21:41:03.364Z,99709.39
2019-03-26T21:43:31.758Z,99718.39
2019-03-26T21:46:00.148Z,99714.09
2019-03-26T21:48:28.542Z,99723.03
2019-03-26T21:50:56.939Z,99715.95
2019-03-26T21:53:26.458Z,99711.73
2019-03-26T21:56:05.703Z,99722.38
2019-03-26T21:58:24.976Z,99726.94
2019-03-26T22:00:53.366Z,99725.22
2019-03-26T22:03:21.771Z,99729.67
2019-03-26T22:05:50.177Z,99736.01
2019-03-26T22:08:18.558Z,99736.92
2019-03-26T22:10:47.133Z,99734.37
2019-03-26T22:13:15.606Z,99734.45
2019-03-26T22:15:44.082Z,99741.63
2019-03-26T22:18:12.481Z,99746.11
2019-03-26T22:20:40.925Z,99745.23
2019-03-26T22:23:10.494Z,99747.97
2019-03-26T22:25:39.138Z,99745.38
2019-03-26T22:28:07.529Z,99748.98
2019-03-26T22:30:35.994Z,99756.97
2019-03-26T22:33:04.376Z,99752.59
2019-03-26T22:35:32.830Z,99761.48
2019-03-26T22:38:01.223Z,99755.33
2019-03-26T22:40:29.652Z,99752.73
2019-03-26T22:42:58.045Z,99768.00
2019-03-26T22:45:26.476Z,99767.13
2019-03-26T22:47:54.894Z,99763.59
2019-03-26T22:50:23.410Z,99768.98
2019-03-26T22:52:51.805Z,99769.09
2019-03-26T22:55:20.240Z,99765.55
2019-03-26T22:57:49.180Z,99766.50
2019-03-26T23:00:19.181Z,99771.96
2019-03-26T23:02:47.557Z,99777.28
2019-03-26T23:05:16.023Z,99784.39
2019-03-26T23:07:44.414Z,99784.45
2019-03-26T23:10:13.348Z,99787.12
2019-03-26T23:12:41.732Z,99793.45
2019-03-26T23:15:16.229Z,99799.64
2019-03-26T23:17:44.655Z,99801.50
2019-03-26T23:20:13.053Z,99801.50
2019-03-26T23:22:41.481Z,99797.13
2019-03-26T23:25:09.909Z,99804.33
2019-03-26T23:27:38.324Z,99806.98
2019-03-26T23:30:07.388Z,99810.49
2019-03-26T23:32:35.879Z,99816.75
2019-03-26T23:35:04.343Z,99817.63
2019-03-26T23:37:32.730Z,99826.44
2019-03-26T23:40:01.159Z,99822.95
2019-03-26T23:42:29.619Z,99822.95
2019-03-26T23:44:58.864Z,99821.20
2019-03-26T23:47:27.343Z,99826.52
2019-03-26T23:49:55.737Z,99815.10
2019-03-26T23:52:24.137Z,99816.82
2019-03-26T23:54:52.528Z,99815.10
2019-03-26T23:57:20.923Z,99823.08
2019-03-26T23:59:49.320Z,99820.49
